Airfield :
LOGIN :

Register | Disclaimer

   EN    FR    IT 

 










Legend :    VFR   Marginal VFR   IFR   Intensive IFR   Very Intensive IFR
Visi :
Ceiling :
>= 8 km
>= 3000ft
5 to 8 km
1000 to 3000 ft
1500m to 5 km
500 to 1000 ft
800 to 1500m
200 to 500 ft
< 800m
< 200 ft
Symbols :   Thunderstorms  Fog  Heavy snow  Heavy precipitations  Wind > 20 kt
SIGMETs :     Misc.  Thunderstorms  Icing  Turbulence  Mountain Waves  Volcanic Ashes







- Airport Elevation : 397 ft
- IATA code : IAS


LRIA - Iasi

CURRENT METAR :
  • 241500Z 21002KT 9999 SCT040CB 22/19 Q1018 R14/29//95

EXPIRED METARs :
  • 241430Z 22003KT 200V260 9999 SCT040CB 22/18 Q1018 R14/29//95
  • 241400Z 21003KT 9999 VCTS SCT040CB 22/18 Q1019 RETS R14/29//95
  • 241330Z 19002KT 9999 -TSRA FEW026 BKN035CB 22/17 Q1018 R14/29//95
  • 241300Z 08019KT 2000 +TSRA SCT026 BKN035CB 24/18 Q1018 R14/29//95
  • 241230Z AUTO 31007KT 9999 TS FEW200/// 28/20 Q1018

TAF TAF LRIA
Valid from the 24 at 15:00 until the 25 at 00:00 UTC


241400Z 2415/2424 VRB04KT CAVOK
TEMPO 2415/2418 5000 -TSRA SCT030CB
No reported NOTAMs for that airfield.



MET'MAP, your aeronautical weather chart ! - Copyright ORBIFLY December 2007 - Disclaimer

ORBIFLY MET'MAP TEAM :

Programming & Development : Alexandra Zaïnal
Concept & Development : Baudouin d'Aumeries
Co-Development & Prog : Marc-Olivier Méhu
Technical & hardware support : Manuel Goepfert

Contact : metmap@orbifly.com




SOURCES & CREDITS :

   NOAA